Big Bear Station Historical Data
Daily Summary for May 2, 2017 Units:  English    Metric   Both
Next Day »
Daily Weekly Monthly Yearly Custom
  High: Low: Average:
Temperature: 76.5 °F 38.1 °F 56.1 °F
Dew Point: 42.6 °F 29.6 °F 35 °F
Humidity: 82% 22% 50%
Wind Speed: 5.3mph 0.0mph 1.6mph
Wind Gust: -999.0mph - -
Wind- - WSW
Pressure: 30.20 in 23.50 in -
Precipitation: 0.00 in    
Historical Graphs
 
 
Tabular Data for May 2, 2017
Time Temperature Dew Point Pressure Wind Wind Speed Wind Gust Humidity Rainfall Rate (Hourly)
00:05 44.4 °F 31.8 °F 23.52 in Calm   -999.0 mph 61% 0 in
00:20 43.9 °F 32.1 °F 23.52 in SSE 1.1 mph -999.0 mph 63% 0 in
00:35 43.9 °F 32.9 °F 23.52 in Calm   -999.0 mph 65% 0 in
00:51 43.5 °F 32.9 °F 23.53 in Calm   -999.0 mph 66% 0 in
01:06 43.0 °F 32.8 °F 23.52 in SSE 1.7 mph -999.0 mph 67% 0 in
01:21 43.0 °F 32.8 °F 23.52 in South 1.7 mph -999.0 mph 67% 0 in
01:36 42.3 °F 33.2 °F 23.52 in SSE 1.7 mph -999.0 mph 70% 0 in
01:51 42.3 °F 33.6 °F 23.52 in SSE 1.7 mph -999.0 mph 71% 0 in
02:07 42.1 °F 33.7 °F 23.51 in Calm   -999.0 mph 72% 0 in
02:22 41.5 °F 33.5 °F 23.51 in Calm   -999.0 mph 73% 0 in
02:37 41.4 °F 33.7 °F 23.51 in Calm   -999.0 mph 74% 0 in
02:52 41.2 °F 34.5 °F 23.51 in Calm   -999.0 mph 77% 0 in
03:08 40.6 °F 34.0 °F 23.50 in Calm   -999.0 mph 77% 0 in
03:23 40.5 °F 34.2 °F 23.50 in South 1.7 mph -999.0 mph 78% 0 in
03:38 40.3 °F 34.3 °F 23.51 in South 2.2 mph -999.0 mph 79% 0 in
03:53 39.9 °F 33.9 °F 23.51 in Calm   -999.0 mph 79% 0 in
04:09 39.7 °F 33.7 °F 23.51 in Calm   -999.0 mph 79% 0 in
04:24 39.7 °F 33.7 °F 23.51 in Calm   -999.0 mph 79% 0 in
04:39 39.2 °F 32.6 °F 23.51 in Calm   -999.0 mph 77% 0 in
04:54 39.0 °F 33.0 °F 23.51 in Calm   -999.0 mph 79% 0 in
05:09 39.0 °F 31.7 °F 23.51 in SSE 1.1 mph -999.0 mph 75% 0 in
05:25 38.8 °F 32.2 °F 23.51 in South 1.7 mph -999.0 mph 77% 0 in
05:40 38.5 °F 32.6 °F 23.51 in Calm   -999.0 mph 79% 0 in
05:55 38.1 °F 32.2 °F 23.51 in SSE 1.7 mph -999.0 mph 79% 0 in
06:10 38.5 °F 32.9 °F 23.51 in South 1.7 mph -999.0 mph 80% 0 in
06:25 38.1 °F 32.2 °F 23.52 in Calm   -999.0 mph 79% 0 in
06:41 38.7 °F 32.7 °F 23.52 in SSW 1.1 mph -999.0 mph 79% 0 in
06:56 38.3 °F 32.7 °F 23.52 in Calm   -999.0 mph 80% 0 in
07:11 38.5 °F 33.5 °F 23.53 in Calm   -999.0 mph 82% 0 in
07:26 39.7 °F 34.3 °F 23.53 in Calm   -999.0 mph 81% 0 in
07:41 40.3 °F 35.2 °F 23.54 in Calm   -999.0 mph 82% 0 in
07:57 42.3 °F 37.2 °F 23.54 in Calm   -999.0 mph 82% 0 in
08:12 43.7 °F 37.0 °F 23.54 in Calm   -999.0 mph 77% 0 in
08:27 46.4 °F 37.9 °F 23.54 in NW 1.7 mph -999.0 mph 72% 0 in
08:42 49.8 °F 38.1 °F 23.54 in NW 1.1 mph -999.0 mph 64% 0 in
08:57 52.3 °F 39.2 °F 23.54 in NW 2.7 mph -999.0 mph 61% 0 in
09:13 54.7 °F 38.4 °F 23.54 in Calm   -999.0 mph 54% 0 in
09:28 56.8 °F 38.9 °F 23.54 in NW 1.7 mph -999.0 mph 51% 0 in
09:43 59.2 °F 34.2 °F 23.54 in Calm   -999.0 mph 39% 0 in
09:58 62.2 °F 32.7 °F 23.54 in NW 3.7 mph -999.0 mph 33% 0 in
10:14 64.4 °F 33.9 °F 23.54 in NW 2.7 mph -999.0 mph 32% 0 in
10:29 65.5 °F 32.4 °F 23.54 in NNW 1.7 mph -999.0 mph 29% 0 in
10:44 67.8 °F 34.4 °F 23.54 in NNW 4.2 mph -999.0 mph 29% 0 in
10:59 68.5 °F 32.3 °F 23.54 in Calm   -999.0 mph 26% 0 in
11:14 69.6 °F 34.1 °F 23.54 in NNW 3.7 mph -999.0 mph 27% 0 in
11:30 69.6 °F 34.1 °F 23.55 in NNW 4.7 mph -999.0 mph 27% 0 in
11:45 71.1 °F 35.4 °F 23.54 in NW 4.2 mph -999.0 mph 27% 0 in
12:00 72.0 °F 38.0 °F 23.54 in North 3.7 mph -999.0 mph 29% 0 in
12:15 72.7 °F 35.8 °F 23.54 in WNW 2.7 mph -999.0 mph 26% 0 in
12:31 73.8 °F 38.7 °F 23.54 in NNW 4.7 mph -999.0 mph 28% 0 in
12:46 74.3 °F 37.2 °F 23.54 in WNW 4.7 mph -999.0 mph 26% 0 in
13:01 73.4 °F 35.4 °F 23.54 in NW 3.2 mph -999.0 mph 25% 0 in
13:17 76.3 °F 34.7 °F 23.54 in SSE 3.7 mph -999.0 mph 22% 0 in
13:32 75.7 °F 38.4 °F 23.53 in WNW 4.2 mph -999.0 mph 26% 0 in
13:47 74.7 °F 35.5 °F 23.54 in North 4.7 mph -999.0 mph 24% 0 in
14:02 74.7 °F 36.5 °F 23.53 in WNW 3.2 mph -999.0 mph 25% 0 in
14:17 75.7 °F 36.4 °F 23.53 in NW 4.2 mph -999.0 mph 24% 0 in
14:33 74.8 °F 35.6 °F 23.53 in North 3.2 mph -999.0 mph 24% 0 in
14:48 75.2 °F 39.9 °F 23.53 in NW 5.3 mph -999.0 mph 28% 0 in
15:03 74.7 °F 38.5 °F 23.52 in North 4.7 mph -999.0 mph 27% 0 in
15:18 74.8 °F 34.5 °F 23.52 in NNW 2.7 mph -999.0 mph 23% 0 in
15:34 75.0 °F 40.6 °F 23.52 in NNW 4.7 mph -999.0 mph 29% 0 in
15:49 73.4 °F 38.3 °F 23.51 in SSE 2.7 mph -999.0 mph 28% 0 in
16:04 73.8 °F 40.4 °F 23.51 in ENE 1.7 mph -999.0 mph 30% 0 in
16:19 73.2 °F 39.9 °F 23.51 in North 4.7 mph -999.0 mph 30% 0 in
16:34 71.1 °F 38.1 °F 23.51 in ENE 1.7 mph -999.0 mph 30% 0 in
16:50 73.4 °F 40.1 °F 23.51 in West 1.7 mph -999.0 mph 30% 0 in
17:05 76.5 °F 41.0 °F 23.51 in SW 2.2 mph -999.0 mph 28% 0 in
17:20 76.3 °F 42.6 °F 23.51 in West 4.2 mph -999.0 mph 30% 0 in
17:35 76.3 °F 42.6 °F 23.52 in South 1.1 mph -999.0 mph 30% 0 in
17:50 75.0 °F 42.3 °F 23.52 in West 3.7 mph -999.0 mph 31% 0 in
18:06 73.8 °F 40.4 °F 23.52 in West 1.7 mph -999.0 mph 30% 0 in
18:21 73.2 °F 39.0 °F 23.51 in NW 4.7 mph -999.0 mph 29% 0 in
18:36 69.1 °F 38.0 °F 23.52 in SW 1.1 mph -999.0 mph 32% 0 in
18:51 66.4 °F 36.4 °F 23.52 in Calm   -999.0 mph 33% 0 in
19:07 63.7 °F 36.2 °F 23.52 in Calm   -999.0 mph 36% 0 in
19:22 61.7 °F 38.4 °F 23.52 in ESE 1.7 mph -999.0 mph 42% 0 in
19:37 60.4 °F 39.0 °F 30.16 in Calm   -999.0 mph 45% 0 in
19:52 58.3 °F 37.0 °F 30.17 in Calm   -999.0 mph 45% 0 in
20:07 56.5 °F 32.5 °F 30.17 in Calm   -999.0 mph 40% 0 in
20:23 55.6 °F 31.0 °F 30.18 in Calm   -999.0 mph 39% 0 in
20:38 54.7 °F 32.0 °F 30.18 in Calm   -999.0 mph 42% 0 in
21:08 52.7 °F 30.8 °F 30.19 in Calm   -999.0 mph 43% 0 in
21:23 51.4 °F 29.6 °F 30.19 in SSE 1.7 mph -999.0 mph 43% 0 in
21:39 51.1 °F 31.0 °F 30.19 in Calm   -999.0 mph 46% 0 in
21:54 50.4 °F 29.8 °F 30.19 in South 1.7 mph -999.0 mph 45% 0 in
22:09 49.8 °F 29.8 °F 30.20 in Calm   -999.0 mph 46% 0 in
22:24 49.1 °F 31.3 °F 30.20 in South 1.7 mph -999.0 mph 50% 0 in
22:39 48.7 °F 30.9 °F 30.20 in South 2.2 mph -999.0 mph 50% 0 in
22:55 48.4 °F 31.6 °F 30.20 in Calm   -999.0 mph 52% 0 in
23:10 48.0 °F 31.2 °F 30.20 in Calm   -999.0 mph 52% 0 in
23:25 47.7 °F 32.8 °F 30.20 in SSE 1.7 mph -999.0 mph 56% 0 in
23:40 47.3 °F 31.5 °F 30.20 in Calm   -999.0 mph 54% 0 in
23:55 46.8 °F 31.9 °F 30.20 in Calm   -999.0 mph 56% 0 in
Big Bear CA Weather